Time;durP1;ratioP1;P1;durP2;ratioP2;P2;SDS_P1;SDS_P2;PMS_P1;PMS_P2;Temp;Humidity;BMP_temperature;BMP_pressure;BME280_temperature;BME280_humidity;BME280_pressure;Samples;Min_cycle;Max_cycle;Signal;HPM_P1;HPM_P2
2022/02/14 00:00:38;;;;;;;317.23;124.90;;;;;;;-3.45;63.25;95180.09;1510498;93;21148;-47
2022/02/14 00:03:06;;;;;;;283.85;116.75;;;;;;;-3.24;63.07;95177.13;1507929;92;21175;-47
2022/02/14 00:05:33;;;;;;;246.13;107.45;;;;;;;-3.07;62.67;95174.06;1516404;92;21089;-47
2022/02/14 00:08:00;;;;;;;283.47;117.37;;;;;;;-2.88;62.06;95174.11;1522001;92;21221;-47
2022/02/14 00:10:27;;;;;;;291.38;116.08;;;;;;;-2.78;61.66;95163.56;1513655;92;21081;-47
2022/02/14 00:12:54;;;;;;;261.70;108.80;;;;;;;-2.66;61.31;95162.07;1512336;92;21119;-47
2022/02/14 00:15:22;;;;;;;267.77;111.40;;;;;;;-2.54;60.74;95167.33;1509549;93;21010;-47
2022/02/14 00:17:49;;;;;;;287.93;115.47;;;;;;;-2.59;60.35;95155.50;1505267;92;21034;-47
2022/02/14 00:20:16;;;;;;;281.15;111.92;;;;;;;-2.64;60.43;95155.80;1520209;92;21085;-46
2022/02/14 00:22:44;;;;;;;303.05;121.05;;;;;;;-2.72;60.52;95156.77;1519275;92;21073;-47
2022/02/14 00:25:10;;;;;;;291.00;114.67;;;;;;;-2.85;60.97;95159.36;1514691;92;21061;-47
2022/02/14 00:27:37;;;;;;;298.23;122.95;;;;;;;-2.93;60.94;95156.31;1513634;92;21250;-47
2022/02/14 00:30:06;;;;;;;230.50;99.40;;;;;;;-3.11;61.19;95157.05;1509273;92;21762;-47
2022/02/14 00:32:35;;;;;;;207.25;91.17;;;;;;;-3.23;61.66;95155.25;1509651;92;21232;-47
2022/02/14 00:35:03;;;;;;;155.32;69.82;;;;;;;-3.32;61.62;95146.60;1505848;93;21101;-47
2022/02/14 00:37:29;;;;;;;150.90;66.75;;;;;;;-3.47;61.87;95146.05;1520818;93;21143;-48
2022/02/14 00:39:56;;;;;;;168.72;74.58;;;;;;;-3.51;62.05;95149.78;1512313;92;21161;-47
2022/02/14 00:42:24;;;;;;;192.68;77.72;;;;;;;-3.52;62.30;95139.39;1506915;92;21557;-48
2022/02/14 00:44:51;;;;;;;196.53;82.00;;;;;;;-3.54;62.43;95143.00;1520743;92;21086;-47
2022/02/14 00:47:17;;;;;;;204.32;88.03;;;;;;;-3.52;62.60;95135.36;1516016;92;21061;-48
2022/02/14 00:49:44;;;;;;;213.03;92.72;;;;;;;-3.47;62.64;95136.64;1515438;92;21041;-47
2022/02/14 00:52:10;;;;;;;196.53;83.42;;;;;;;-3.37;62.51;95129.40;1509042;93;21166;-47
2022/02/14 00:54:37;;;;;;;222.40;78.55;;;;;;;-3.23;62.24;95130.28;1507440;93;21617;-48
2022/02/14 00:57:04;;;;;;;151.45;60.85;;;;;;;-3.15;61.89;95124.70;1507804;92;21063;-47
2022/02/14 00:59:32;;;;;;;182.62;67.08;;;;;;;-3.17;61.44;95124.28;1506268;93;21148;-48
2022/02/14 01:01:58;;;;;;;168.28;71.70;;;;;;;-3.14;61.59;95122.23;1508442;92;21737;-48
2022/02/14 01:04:25;;;;;;;257.02;96.55;;;;;;;-3.07;61.38;95118.33;1509033;92;21234;-48
2022/02/14 01:06:52;;;;;;;234.03;102.25;;;;;;;-2.98;60.98;95116.23;1519056;92;21556;-48
2022/02/14 01:09:18;;;;;;;220.00;98.07;;;;;;;-3.07;60.78;95114.30;1487958;94;21122;-48
2022/02/14 01:11:45;;;;;;;208.85;87.33;;;;;;;-3.17;60.93;95110.83;1516675;92;21034;-48
2022/02/14 01:14:12;;;;;;;117.15;49.85;;;;;;;-3.24;61.50;95103.93;1511667;92;21017;-47
2022/02/14 01:16:38;;;;;;;172.05;76.17;;;;;;;-3.20;61.17;95102.09;1512266;92;21842;-47
2022/02/14 01:19:05;;;;;;;170.43;75.28;;;;;;;-3.34;61.08;95091.05;1515236;93;21090;-49
2022/02/14 01:21:33;;;;;;;195.57;88.55;;;;;;;-3.44;61.47;95104.26;1506868;93;21045;-49
2022/02/14 01:23:59;;;;;;;161.15;72.70;;;;;;;-3.60;61.59;95098.67;1512347;92;21174;-47
2022/02/14 01:26:26;;;;;;;191.20;77.45;;;;;;;-3.67;62.41;95102.55;1506186;93;21058;-47
2022/02/14 01:28:52;;;;;;;171.40;75.05;;;;;;;-3.58;62.23;95100.44;1506748;93;21186;-47
2022/02/14 01:31:19;;;;;;;189.43;84.75;;;;;;;-3.50;62.57;95092.98;1486839;93;21134;-47
2022/02/14 01:33:47;;;;;;;167.43;69.20;;;;;;;-3.45;62.13;95090.02;1522415;92;21141;-47
2022/02/14 01:36:14;;;;;;;213.22;91.45;;;;;;;-3.40;62.38;95089.73;1506712;93;21010;-47
2022/02/14 01:38:41;;;;;;;219.22;92.42;;;;;;;-3.43;62.04;95086.41;1505082;93;21118;-46
2022/02/14 01:41:07;;;;;;;170.55;76.33;;;;;;;-3.43;61.67;95086.41;1509557;92;21986;-47
2022/02/14 01:43:35;;;;;;;192.30;82.45;;;;;;;-3.52;61.72;95071.60;1514607;92;21021;-47
2022/02/14 01:46:01;;;;;;;173.15;73.47;;;;;;;-3.50;62.33;95076.85;1523628;92;21133;-48
2022/02/14 01:48:28;;;;;;;221.40;98.20;;;;;;;-3.39;61.70;95071.70;1517948;92;21106;-47
2022/02/14 01:50:54;;;;;;;225.62;95.75;;;;;;;-3.50;61.59;95070.13;1513676;93;21066;-46
2022/02/14 01:53:23;;;;;;;231.45;92.85;;;;;;;-3.61;61.63;95074.27;1517853;92;22379;-48
2022/02/14 01:55:52;;;;;;;197.90;85.70;;;;;;;-3.74;61.93;95073.59;1505465;93;21632;-47
2022/02/14 01:58:20;;;;;;;235.53;103.40;;;;;;;-3.84;62.04;95069.31;1518510;92;21089;-48
2022/02/14 02:00:48;;;;;;;222.37;97.47;;;;;;;-4.03;62.08;95069.25;1510037;93;21120;-47
2022/02/14 02:03:16;;;;;;;218.82;100.22;;;;;;;-4.20;62.45;95060.19;1512220;92;21530;-47
2022/02/14 02:05:46;;;;;;;240.22;105.78;;;;;;;-4.28;62.84;95053.86;1509443;93;21341;-48
2022/02/14 02:08:15;;;;;;;199.80;87.88;;;;;;;-4.27;63.10;95060.02;1522941;92;20981;-48
2022/02/14 02:10:42;;;;;;;215.28;98.10;;;;;;;-4.18;63.13;95061.96;1511695;92;21521;-48
2022/02/14 02:13:08;;;;;;;265.48;116.57;;;;;;;-4.24;62.89;95057.98;1516555;93;21568;-48
2022/02/14 02:15:37;;;;;;;224.45;106.25;;;;;;;-4.33;62.95;95055.47;1515786;93;21243;-47
2022/02/14 02:18:07;;;;;;;211.28;95.85;;;;;;;-4.30;63.29;95048.06;1513640;92;21168;-48
2022/02/14 02:20:35;;;;;;;221.10;97.45;;;;;;;-4.16;63.66;95048.41;1517889;92;21021;-48
2022/02/14 02:23:01;;;;;;;199.00;90.45;;;;;;;-4.01;63.12;95052.21;1512358;92;21025;-48
2022/02/14 02:25:28;;;;;;;202.47;93.37;;;;;;;-3.92;63.19;95051.45;1509351;92;21081;-48
2022/02/14 02:27:55;;;;;;;202.22;91.78;;;;;;;-3.74;62.93;95039.21;1523731;92;21059;-47
2022/02/14 02:30:22;;;;;;;200.65;95.53;;;;;;;-3.57;62.58;95037.70;1508701;93;21185;-48
2022/02/14 02:32:49;;;;;;;202.43;91.90;;;;;;;-3.41;62.00;95037.09;1519464;93;21060;-48
2022/02/14 02:35:16;;;;;;;205.90;93.87;;;;;;;-3.30;61.57;95035.42;1517905;92;21022;-47
2022/02/14 02:37:42;;;;;;;222.63;100.87;;;;;;;-3.35;61.26;95029.53;1520621;92;21029;-48
2022/02/14 02:40:11;;;;;;;225.82;100.38;;;;;;;-3.47;60.98;95029.09;1517780;92;21066;-48
2022/02/14 02:42:38;;;;;;;233.95;100.80;;;;;;;-3.60;61.35;95026.09;1521427;92;21223;-48
2022/02/14 02:45:06;;;;;;;212.93;95.97;;;;;;;-3.59;61.75;95031.13;1518365;92;21153;-48
2022/02/14 02:47:34;;;;;;;167.55;75.52;;;;;;;-3.46;61.42;95028.55;1520429;92;21128;-48
2022/02/14 02:50:01;;;;;;;167.07;78.75;;;;;;;-3.41;60.99;95027.68;1506097;94;21125;-47
2022/02/14 02:52:27;;;;;;;173.47;78.05;;;;;;;-3.46;61.06;95022.59;1512035;92;21117;-48
2022/02/14 02:54:56;;;;;;;168.30;77.47;;;;;;;-3.48;61.19;95024.85;1503216;92;21193;-48
2022/02/14 02:57:23;;;;;;;116.12;58.52;;;;;;;-3.43;61.25;95023.22;1509060;94;21557;-47
2022/02/14 02:59:49;;;;;;;121.30;55.55;;;;;;;-3.49;60.97;95019.27;1512115;92;21029;-48
2022/02/14 03:02:16;;;;;;;132.00;61.80;;;;;;;-3.60;61.02;95018.03;1514953;93;21084;-48
2022/02/14 03:04:43;;;;;;;151.60;72.50;;;;;;;-3.76;60.95;95017.28;1509494;92;21070;-48
2022/02/14 03:07:09;;;;;;;181.97;84.60;;;;;;;-4.03;61.02;95023.58;1505797;93;21792;-48
2022/02/14 03:09:36;;;;;;;170.57;82.17;;;;;;;-4.36;61.36;95022.61;1512012;92;21474;-48
2022/02/14 03:12:04;;;;;;;175.68;81.10;;;;;;;-4.51;62.03;95021.23;1518452;92;21033;-48
2022/02/14 03:14:31;;;;;;;175.47;84.20;;;;;;;-4.61;62.20;95021.77;1509428;92;21589;-48
2022/02/14 03:16:58;;;;;;;181.57;81.42;;;;;;;-4.66;62.89;95016.63;1505973;94;21312;-48
2022/02/14 03:19:25;;;;;;;185.45;83.07;;;;;;;-4.56;63.28;95012.90;1512537;92;21180;-48
2022/02/14 03:21:51;;;;;;;170.25;76.80;;;;;;;-4.54;63.01;95011.20;1524541;92;21615;-47
2022/02/14 03:24:18;;;;;;;190.03;88.33;;;;;;;-4.58;63.30;95004.39;1517850;93;21041;-47
2022/02/14 03:26:45;;;;;;;172.17;79.60;;;;;;;-4.53;63.59;95002.02;1506884;92;21074;-48
2022/02/14 03:29:13;;;;;;;172.40;78.28;;;;;;;-4.47;63.23;95005.45;1522128;92;21033;-47
2022/02/14 03:31:40;;;;;;;159.65;76.20;;;;;;;-4.49;63.05;95005.56;1507083;93;21941;-46
2022/02/14 03:34:07;;;;;;;165.65;77.85;;;;;;;-4.50;63.11;95009.37;1513501;92;21644;-47
2022/02/14 03:36:35;;;;;;;182.27;80.22;;;;;;;-4.50;63.00;95001.32;1519297;92;21584;-48
2022/02/14 03:39:04;;;;;;;189.30;84.03;;;;;;;-4.52;63.14;94999.55;1513641;92;21173;-47
2022/02/14 03:41:31;;;;;;;176.42;81.45;;;;;;;-4.52;63.21;95007.60;1511224;92;21074;-47
2022/02/14 03:43:57;;;;;;;175.35;84.37;;;;;;;-4.57;63.02;95007.86;1513934;92;21139;-47
2022/02/14 03:46:24;;;;;;;174.80;85.22;;;;;;;-4.61;63.68;95004.32;1517153;92;21078;-47
2022/02/14 03:48:50;;;;;;;189.25;85.60;;;;;;;-4.48;63.79;95004.44;1513622;93;21553;-48
2022/02/14 03:51:17;;;;;;;173.45;77.85;;;;;;;-4.36;63.73;95003.02;1512425;92;21074;-48
2022/02/14 03:53:43;;;;;;;169.15;75.95;;;;;;;-4.18;63.42;95002.88;1516676;93;21050;-47
2022/02/14 03:56:10;;;;;;;168.85;78.22;;;;;;;-4.05;62.78;94997.64;1524538;92;21172;-47
2022/02/14 03:58:37;;;;;;;169.17;76.02;;;;;;;-3.90;62.42;94999.52;1505305;94;21180;-47
2022/02/14 04:01:03;;;;;;;163.28;75.60;;;;;;;-3.76;61.84;94996.58;1520683;92;21032;-47
2022/02/14 04:03:30;;;;;;;189.18;83.92;;;;;;;-3.71;61.04;95003.59;1520022;92;21208;-47
2022/02/14 04:05:58;;;;;;;187.40;84.95;;;;;;;-3.89;60.70;95005.88;1522059;92;21544;-48
2022/02/14 04:08:25;;;;;;;147.10;70.42;;;;;;;-4.12;60.94;95002.27;1510580;92;21115;-47
2022/02/14 04:10:53;;;;;;;125.82;61.00;;;;;;;-4.32;61.19;94999.30;1509370;92;21055;-47
2022/02/14 04:13:21;;;;;;;122.07;57.80;;;;;;;-4.49;61.55;95000.20;1516000;92;21161;-47
2022/02/14 04:15:48;;;;;;;130.75;59.63;;;;;;;-4.62;61.87;95009.47;1512313;92;21156;-47
2022/02/14 04:18:15;;;;;;;124.67;55.35;;;;;;;-4.81;62.00;94998.63;1509572;93;21170;-47
2022/02/14 04:20:41;;;;;;;143.30;66.90;;;;;;;-4.98;62.53;95006.41;1505355;94;21177;-47
2022/02/14 04:23:08;;;;;;;145.30;67.03;;;;;;;-5.07;62.75;95006.34;1506620;93;21021;-47
2022/02/14 04:25:35;;;;;;;117.47;54.23;;;;;;;-5.20;62.97;95005.62;1518888;92;21081;-53
2022/02/14 04:28:02;;;;;;;109.87;56.55;;;;;;;-5.25;63.65;95003.74;1512355;93;21097;-48
2022/02/14 04:30:29;;;;;;;161.47;73.90;;;;;;;-5.18;63.81;95002.61;1513696;93;21013;-47
2022/02/14 04:32:59;;;;;;;168.70;73.00;;;;;;;-5.12;63.96;95000.66;1508122;92;21897;-48
2022/02/14 04:35:30;;;;;;;165.47;76.35;;;;;;;-5.07;63.92;95003.67;1510114;93;21005;-48
2022/02/14 04:38:00;;;;;;;160.65;71.60;;;;;;;-5.02;63.82;94992.69;1513654;93;21665;-47
2022/02/14 04:40:33;;;;;;;179.40;80.22;;;;;;;-4.96;63.82;94993.44;1512377;93;21112;-48
2022/02/14 04:43:00;;;;;;;171.65;77.62;;;;;;;-4.87;63.67;95001.33;1515363;93;21553;-47
2022/02/14 04:45:28;;;;;;;184.65;79.12;;;;;;;-4.83;63.52;94994.17;1514312;92;22037;-49
2022/02/14 04:47:56;;;;;;;157.30;73.40;;;;;;;-4.81;63.42;94993.27;1515114;92;21014;-48
2022/02/14 04:50:22;;;;;;;168.82;76.42;;;;;;;-4.81;63.53;95002.66;1521881;92;21034;-47
2022/02/14 04:52:49;;;;;;;189.35;83.07;;;;;;;-4.77;63.39;95002.18;1516680;92;21074;-49
2022/02/14 04:55:16;;;;;;;189.95;83.22;;;;;;;-4.85;63.04;95001.77;1512365;92;21029;-48
2022/02/14 04:57:43;;;;;;;183.27;81.95;;;;;;;-4.90;63.23;95005.49;1517856;92;22390;-48
2022/02/14 05:00:12;;;;;;;154.53;74.32;;;;;;;-4.88;63.21;95008.61;1516506;92;21030;-47
2022/02/14 05:02:39;;;;;;;182.32;82.57;;;;;;;-4.85;63.03;95006.58;1505243;93;21216;-48
2022/02/14 05:05:07;;;;;;;190.40;93.10;;;;;;;-4.79;63.05;95003.84;1516554;92;21133;-48
2022/02/14 05:07:36;;;;;;;220.60;110.48;;;;;;;-4.66;63.27;95008.58;1513618;92;21116;-47
2022/02/14 05:10:03;;;;;;;173.10;83.22;;;;;;;-4.56;62.61;95016.13;1512208;93;21105;-47
2022/02/14 05:12:30;;;;;;;143.50;67.67;;;;;;;-4.67;62.33;95005.68;1513606;92;21497;-48
2022/02/14 05:14:57;;;;;;;140.47;63.73;;;;;;;-4.79;62.53;95014.58;1508704;93;21153;-47
2022/02/14 05:17:24;;;;;;;150.75;67.35;;;;;;;-4.80;62.61;95021.65;1513841;92;21500;-47
2022/02/14 05:19:53;;;;;;;138.57;64.37;;;;;;;-4.81;62.60;95022.20;1517961;92;21062;-47
2022/02/14 05:22:19;;;;;;;125.78;62.98;;;;;;;-4.80;62.66;95018.97;1506625;93;21234;-47
2022/02/14 05:24:46;;;;;;;144.80;65.45;;;;;;;-4.73;62.75;95013.77;1512300;93;21215;-48
2022/02/14 05:27:13;;;;;;;127.05;59.65;;;;;;;-4.73;62.53;95017.25;1524046;92;21054;-47
2022/02/14 05:29:40;;;;;;;147.78;73.17;;;;;;;-4.79;62.48;95010.56;1514268;92;21062;-46
2022/02/14 05:32:07;;;;;;;156.82;76.95;;;;;;;-4.85;62.74;95024.56;1507505;93;21039;-51
2022/02/14 05:34:35;;;;;;;157.72;76.45;;;;;;;-4.84;62.83;95026.13;1520531;92;21619;-46
2022/02/14 05:37:03;;;;;;;156.72;79.45;;;;;;;-4.76;63.07;95024.63;1487412;93;21061;-47
2022/02/14 05:39:30;;;;;;;156.78;78.07;;;;;;;-4.53;63.00;95030.20;1508698;93;21068;-46
2022/02/14 05:41:56;;;;;;;197.98;100.60;;;;;;;-4.32;62.62;95029.39;1506624;92;21157;-48
2022/02/14 05:44:23;;;;;;;172.43;85.25;;;;;;;-4.20;62.06;95029.31;1520749;92;21069;-50
2022/02/14 05:46:50;;;;;;;147.60;72.08;;;;;;;-4.19;61.66;95034.89;1514978;92;21183;-50
2022/02/14 05:49:17;;;;;;;155.45;69.47;;;;;;;-4.29;61.40;95035.40;1516172;93;21112;-53
2022/02/14 05:51:43;;;;;;;146.45;71.42;;;;;;;-4.46;61.67;95029.05;1508521;93;21066;-48
2022/02/14 05:54:10;;;;;;;132.20;60.78;;;;;;;-4.57;61.76;95034.13;1511608;92;21602;-48
2022/02/14 05:56:38;;;;;;;112.75;56.40;;;;;;;-4.64;62.03;95031.84;1515093;92;21061;-47
2022/02/14 05:59:05;;;;;;;122.33;58.13;;;;;;;-4.68;62.13;95039.80;1516527;92;21178;-47
2022/02/14 06:01:32;;;;;;;115.35;58.92;;;;;;;-4.66;62.13;95040.78;1516444;92;21040;-48
2022/02/14 06:03:58;;;;;;;106.90;52.33;;;;;;;-4.70;62.15;95035.89;1513500;93;21042;-47
2022/02/14 06:06:25;;;;;;;132.95;64.37;;;;;;;-4.78;62.22;95032.81;1512337;92;22452;-47
2022/02/14 06:08:52;;;;;;;344.18;131.25;;;;;;;-4.88;62.27;95029.28;1513599;92;21140;-48
2022/02/14 06:11:19;;;;;;;269.70;112.57;;;;;;;-4.91;62.49;95031.30;1513989;93;21152;-47
2022/02/14 06:13:45;;;;;;;230.98;105.15;;;;;;;-4.82;62.86;95032.71;1509595;92;21074;-49
2022/02/14 06:16:13;;;;;;;216.65;97.92;;;;;;;-4.69;62.68;95029.40;1508679;92;21090;-46
2022/02/14 06:18:40;;;;;;;217.40;100.53;;;;;;;-4.64;62.48;95029.93;1517089;92;21604;-50
2022/02/14 06:21:06;;;;;;;244.53;106.92;;;;;;;-4.66;62.49;95036.20;1505979;92;21513;-48
2022/02/14 06:23:33;;;;;;;258.60;115.25;;;;;;;-4.65;62.96;95025.69;1483186;94;21187;-50
2022/02/14 06:26:04;;;;;;;256.68;117.95;;;;;;;-4.50;63.41;95033.53;1525686;91;21081;-48
2022/02/14 06:28:37;;;;;;;226.07;111.17;;;;;;;-4.28;62.97;95027.59;1534080;91;21101;-49
2022/02/14 06:31:00;;;;;;;261.57;133.20;;;;;;;-4.28;62.81;95031.04;1549510;90;21121;-48
2022/02/14 06:33:27;;;;;;;308.82;162.55;;;;;;;-4.22;63.16;95028.88;1550537;90;21234;-49
2022/02/14 06:35:53;;;;;;;320.25;151.30;;;;;;;-4.05;62.95;95029.29;1545612;90;22391;-48
2022/02/14 06:38:20;;;;;;;282.45;131.15;;;;;;;-3.89;62.83;95022.57;1532969;92;21128;-47
2022/02/14 06:40:48;;;;;;;194.65;102.95;;;;;;;-3.82;62.52;95017.35;1544227;90;21142;-50
2022/02/14 06:43:16;;;;;;;207.50;103.00;;;;;;;-3.83;62.29;95017.14;1546356;91;21056;-48
2022/02/14 06:45:42;;;;;;;214.20;116.33;;;;;;;-3.91;62.16;95018.88;1530322;90;21141;-49
2022/02/14 06:48:09;;;;;;;238.40;116.53;;;;;;;-3.97;62.33;95023.52;1542944;91;22068;-48
2022/02/14 06:50:36;;;;;;;213.82;108.65;;;;;;;-3.96;62.38;95015.67;1531136;90;21052;-48
2022/02/14 06:53:02;;;;;;;168.93;88.03;;;;;;;-3.94;62.58;95021.48;1539934;90;21012;-47
2022/02/14 06:55:29;;;;;;;126.92;66.70;;;;;;;-3.83;62.60;95021.16;1528855;91;21154;-47
2022/02/14 06:57:56;;;;;;;113.00;60.33;;;;;;;-3.79;62.39;95022.02;1529801;91;21175;-49
2022/02/14 07:00:22;;;;;;;119.10;63.15;;;;;;;-3.68;62.54;95021.70;1555491;89;21137;-48
2022/02/14 07:02:49;;;;;;;127.47;63.45;;;;;;;-3.67;62.28;95016.54;1533302;92;21080;-50
2022/02/14 07:05:17;;;;;;;207.25;90.87;;;;;;;-3.70;62.31;95013.22;1528857;92;21186;-53
2022/02/14 07:07:44;;;;;;;160.10;75.15;;;;;;;-3.71;62.54;95006.28;1532653;92;21105;-50
2022/02/14 07:10:13;;;;;;;80.57;42.33;;;;;;;-3.62;62.43;95012.23;1523837;90;21156;-49
2022/02/14 07:12:42;;;;;;;124.10;63.68;;;;;;;-3.55;62.30;95009.72;1533066;91;22039;-50
2022/02/14 07:15:11;;;;;;;129.47;59.83;;;;;;;-3.52;62.32;95005.73;1513059;91;21544;-48
2022/02/14 07:17:41;;;;;;;120.65;59.73;;;;;;;-3.45;62.47;95002.64;1549713;90;21122;-49
2022/02/14 07:20:09;;;;;;;141.22;71.28;;;;;;;-3.39;62.67;95001.22;1523818;92;21639;-48
2022/02/14 07:22:38;;;;;;;158.87;74.70;;;;;;;-3.31;62.66;95000.25;1527153;91;21085;-52
2022/02/14 07:25:06;;;;;;;173.10;83.62;;;;;;;-3.24;62.72;94995.00;1531270;92;21462;-48
2022/02/14 07:27:35;;;;;;;215.20;105.85;;;;;;;-3.13;62.82;94992.52;1533668;92;21101;-49
2022/02/14 07:30:09;;;;;;;228.95;108.60;;;;;;;-2.99;62.86;94982.83;1527410;90;21128;-48
2022/02/14 07:32:36;;;;;;;190.07;92.60;;;;;;;-2.88;62.62;94987.83;1532203;91;21129;-48
2022/02/14 07:35:06;;;;;;;173.80;85.83;;;;;;;-2.78;62.69;94991.30;1562237;90;21149;-53
2022/02/14 07:37:34;;;;;;;189.22;88.45;;;;;;;-2.66;62.66;94984.38;1528101;92;21944;-49
2022/02/14 07:40:01;;;;;;;130.37;66.53;;;;;;;-2.51;62.57;94984.09;1527953;91;21518;-48
2022/02/14 07:42:28;;;;;;;99.50;52.88;;;;;;;-2.34;62.48;94980.33;1515651;92;21126;-49
2022/02/14 07:44:56;;;;;;;93.70;44.35;;;;;;;-2.19;61.95;94981.33;1530349;91;21603;-50
2022/02/14 07:47:23;;;;;;;96.92;46.95;;;;;;;-2.02;61.70;94976.80;1529973;92;21073;-50
2022/02/14 07:49:51;;;;;;;128.40;69.10;;;;;;;-1.91;61.50;94970.45;1529651;90;21840;-50
2022/02/14 07:52:18;;;;;;;125.62;65.20;;;;;;;-1.79;61.29;94974.27;1520089;92;21132;-52
2022/02/14 07:54:45;;;;;;;146.77;77.08;;;;;;;-1.67;61.00;94964.63;1526060;91;21159;-50
2022/02/14 07:57:12;;;;;;;140.12;72.08;;;;;;;-1.53;61.21;94966.17;1522394;92;21154;-47
2022/02/14 07:59:39;;;;;;;149.60;78.90;;;;;;;-1.30;60.85;94968.20;1508655;93;21780;-49
2022/02/14 08:02:08;;;;;;;148.60;79.32;;;;;;;-1.21;60.62;94960.59;1549440;90;21162;-49
2022/02/14 08:04:36;;;;;;;174.72;90.50;;;;;;;-1.13;60.43;94962.25;1527499;90;21139;-50
2022/02/14 08:07:06;;;;;;;169.85;86.60;;;;;;;-1.07;60.19;94958.86;1516679;91;21060;-53
2022/02/14 08:09:34;;;;;;;146.32;73.65;;;;;;;-0.97;60.06;94957.43;1515047;91;21113;-49
2022/02/14 08:12:00;;;;;;;123.22;64.77;;;;;;;-0.77;59.70;94943.95;1505377;92;21118;-48
2022/02/14 08:14:27;;;;;;;179.68;85.57;;;;;;;-0.56;59.08;94948.20;1511835;92;21180;-50
2022/02/14 08:16:53;;;;;;;135.35;70.87;;;;;;;-0.41;59.03;94947.20;1530659;91;21626;-47
2022/02/14 08:19:20;;;;;;;146.02;75.83;;;;;;;-0.24;58.64;94947.93;1530160;91;21175;-50
2022/02/14 08:21:47;;;;;;;182.82;91.25;;;;;;;-0.03;58.34;94941.33;1535003;91;21163;-47
2022/02/14 08:24:14;;;;;;;145.68;77.25;;;;;;;0.09;57.87;94938.55;1520270;91;21544;-50
2022/02/14 08:26:40;;;;;;;159.95;81.90;;;;;;;0.18;58.12;94932.22;1526230;92;21830;-49
2022/02/14 08:29:07;;;;;;;163.85;86.92;;;;;;;0.29;58.23;94934.42;1538931;91;21128;-48
2022/02/14 08:31:36;;;;;;;125.07;66.45;;;;;;;0.43;57.87;94929.08;1530072;91;21125;-50
2022/02/14 08:34:03;;;;;;;131.22;70.35;;;;;;;0.59;57.56;94922.78;1529855;91;21081;-48
2022/02/14 08:36:30;;;;;;;112.47;60.52;;;;;;;0.68;57.28;94923.23;1510600;92;21125;-55
2022/02/14 08:38:57;;;;;;;95.30;55.28;;;;;;;0.77;56.79;94921.53;1527797;92;21118;-51
2022/02/14 08:41:23;;;;;;;109.75;56.58;;;;;;;0.77;56.62;94918.22;1518247;92;21540;-51
2022/02/14 08:43:50;;;;;;;85.42;45.73;;;;;;;0.89;56.90;94907.63;1524676;90;21151;-55
2022/02/14 08:46:21;;;;;;;92.92;50.20;;;;;;;1.05;56.69;94911.57;1521825;91;21096;-50
2022/02/14 08:48:50;;;;;;;83.60;44.53;;;;;;;1.14;56.26;94901.13;1526276;92;21029;-49
2022/02/14 08:51:18;;;;;;;101.27;50.20;;;;;;;1.26;56.22;94895.94;1532528;91;21188;-47
2022/02/14 08:53:49;;;;;;;142.22;69.17;;;;;;;1.31;56.27;94899.05;1525966;91;21173;-49
2022/02/14 08:56:16;;;;;;;119.97;57.20;;;;;;;1.44;56.24;94889.40;1525019;90;21126;-47
2022/02/14 08:58:45;;;;;;;123.47;59.10;;;;;;;1.66;56.11;94895.03;1518321;92;22397;-49
2022/02/14 09:01:11;;;;;;;127.62;60.67;;;;;;;1.81;55.76;94889.80;1531919;91;21114;-49
2022/02/14 09:03:39;;;;;;;111.83;55.30;;;;;;;1.92;55.64;94889.23;1530251;91;21155;-50
2022/02/14 09:06:09;;;;;;;94.62;46.53;;;;;;;2.11;55.63;94891.54;1517993;92;21119;-50
2022/02/14 09:08:36;;;;;;;102.75;51.95;;;;;;;2.30;55.00;94884.34;1544454;91;22062;-50
2022/02/14 09:11:04;;;;;;;106.35;55.00;;;;;;;2.44;54.58;94876.92;1532997;91;21052;-48
2022/02/14 09:13:32;;;;;;;117.35;54.90;;;;;;;2.59;54.09;94874.94;1534006;91;21113;-47
2022/02/14 09:16:05;;;;;;;94.07;47.05;;;;;;;2.77;53.91;94872.36;1529975;91;21199;-50
2022/02/14 09:18:36;;;;;;;86.37;43.28;;;;;;;2.96;53.60;94871.89;1568328;89;21167;-48
2022/02/14 09:21:03;;;;;;;84.35;44.60;;;;;;;3.23;53.18;94864.74;1524815;91;21115;-49
2022/02/14 09:23:32;;;;;;;71.20;37.75;;;;;;;3.49;52.82;94866.33;1522820;92;21097;-51
2022/02/14 09:26:00;;;;;;;56.83;33.48;;;;;;;3.73;51.99;94854.48;1540884;91;21719;-48
2022/02/14 09:28:27;;;;;;;56.92;30.88;;;;;;;4.02;51.26;94853.08;1539382;91;21100;-49
2022/02/14 09:30:54;;;;;;;46.50;24.85;;;;;;;4.28;50.81;94848.34;1543120;91;21072;-51
2022/02/14 09:33:22;;;;;;;66.55;34.33;;;;;;;4.57;50.12;94852.33;1534448;91;21103;-50
2022/02/14 09:35:49;;;;;;;53.98;29.63;;;;;;;4.71;49.47;94846.73;1537270;91;21107;-49
2022/02/14 09:38:15;;;;;;;67.90;34.05;;;;;;;4.79;49.14;94841.37;1520438;92;21148;-50
2022/02/14 09:40:43;;;;;;;60.05;31.37;;;;;;;4.78;48.91;94836.34;1519343;92;21531;-52
2022/02/14 09:43:13;;;;;;;55.90;28.52;;;;;;;4.84;49.10;94838.21;1531415;91;21230;-51
2022/02/14 09:45:40;;;;;;;41.95;25.70;;;;;;;5.02;48.83;94833.31;1498606;93;21088;-50
2022/02/14 09:48:10;;;;;;;66.97;35.23;;;;;;;5.21;48.34;94827.21;1495019;93;21080;-48
2022/02/14 09:50:39;;;;;;;52.43;31.73;;;;;;;5.39;48.00;94821.67;1509633;93;21519;-49
2022/02/14 09:53:08;;;;;;;62.40;35.75;;;;;;;5.70;47.81;94823.16;1497852;93;21192;-47
2022/02/14 09:55:37;;;;;;;46.95;27.32;;;;;;;6.03;47.11;94817.37;1494495;93;21199;-49
2022/02/14 09:58:07;;;;;;;39.23;21.68;;;;;;;6.27;46.24;94810.70;1472104;95;21045;-47
2022/02/14 10:00:35;;;;;;;46.33;28.12;;;;;;;6.35;46.08;94805.30;1530871;90;21135;-48
2022/02/14 10:03:15;;;;;;;30.17;17.55;;;;;;;6.59;46.12;94797.22;1523852;92;21157;-49
2022/02/14 10:05:48;;;;;;;28.85;15.55;;;;;;;6.85;45.23;94797.08;1530072;92;21209;-51
2022/02/14 10:08:21;;;;;;;24.30;16.60;;;;;;;7.03;44.14;94796.73;1536825;92;21152;-49
2022/02/14 10:10:51;;;;;;;24.80;16.65;;;;;;;7.06;43.79;94797.24;1530798;92;21561;-48
2022/02/14 10:13:34;;;;;;;29.92;18.27;;;;;;;7.15;43.98;94790.76;1522202;91;21233;-49
2022/02/14 10:16:03;;;;;;;29.48;18.85;;;;;;;7.38;43.97;94783.78;1497581;91;21166;-49
2022/02/14 10:18:34;;;;;;;30.45;20.48;;;;;;;7.74;43.24;94790.59;1530370;91;49605;-50
2022/02/14 10:21:22;;;;;;;28.42;18.70;;;;;;;8.03;43.03;94776.39;1529675;90;21038;-48
2022/02/14 10:24:09;;;;;;;26.65;18.82;;;;;;;8.45;42.16;94780.17;1537253;90;21040;-50
2022/02/14 10:26:41;;;;;;;28.65;18.20;;;;;;;9.05;41.58;94766.94;1533428;91;21791;-52
2022/02/14 10:29:27;;;;;;;35.35;18.67;;;;;;;9.67;40.42;94764.82;1537130;90;21581;-48
2022/02/14 10:32:08;;;;;;;36.50;20.45;;;;;;;10.14;39.68;94758.80;1538698;90;21208;-51
2022/02/14 10:34:43;;;;;;;27.85;15.78;;;;;;;10.59;38.46;94755.85;1532360;91;21092;-49
2022/02/14 10:37:15;;;;;;;29.82;17.27;;;;;;;10.88;37.80;94750.26;1525667;90;21033;-49
2022/02/14 10:39:43;;;;;;;18.77;13.83;;;;;;;11.12;36.92;94745.81;1532763;90;21108;-47
2022/02/14 10:42:12;;;;;;;19.07;14.33;;;;;;;11.41;36.71;94739.99;1537755;91;21040;-48
2022/02/14 10:47:35;;;;;;;26.37;17.32;;;;;;;12.28;35.58;94728.80;1534278;91;21184;-51
2022/02/14 10:50:20;;;;;;;23.38;15.85;;;;;;;12.82;34.89;94726.80;1534931;90;21170;-48
2022/02/14 10:52:59;;;;;;;27.65;18.65;;;;;;;13.51;33.89;94717.94;1533741;90;21226;-50
2022/02/14 10:55:33;;;;;;;25.23;16.48;;;;;;;14.11;33.10;94713.03;1533777;90;21087;-51
2022/02/14 10:58:00;;;;;;;31.20;20.12;;;;;;;14.51;32.11;94705.27;1533808;90;21712;-50
2022/02/14 11:00:34;;;;;;;32.48;22.87;;;;;;;14.78;31.68;94705.66;1530896;90;21175;-49
2022/02/14 11:03:06;;;;;;;35.52;22.60;;;;;;;15.14;30.92;94704.69;1531358;90;21663;-53
2022/02/14 11:05:31;;;;;;;36.63;25.68;;;;;;;15.32;30.63;94698.98;1520018;91;21204;-51
2022/02/14 11:07:59;;;;;;;43.25;30.02;;;;;;;15.58;30.38;94696.39;1531357;92;21104;-50
2022/02/14 11:10:26;;;;;;;45.17;31.48;;;;;;;16.03;30.99;94695.19;1526671;90;21107;-48
2022/02/14 11:12:56;;;;;;;32.28;23.20;;;;;;;16.58;29.37;94687.62;1530739;92;21671;-48
2022/02/14 11:15:30;;;;;;;36.28;26.70;;;;;;;16.83;28.46;94679.33;1526370;92;21026;-48
2022/02/14 11:18:06;;;;;;;30.52;22.65;;;;;;;16.91;28.97;94683.84;1526068;92;21277;-51